Portada
METAR-TAF:

METAR-TAF

Aeroports :

Iekaterinburg, Rússia

latitud: 56-50N, longitud: 060-38E, altitud: 237 m

Observació

L'informe es va fer fa 23 minuts, a les 04:00 UTC
Vent 2 kt amb direcció variable
Temperatura 0°C
Humitat 86%
Pressió 1017 hPa
Visibilitat: 9000 m
Escasses núvols a una alçada de 1600 ft

METAR: USSS 230400Z VRB01MPS 9000 FEW016 00/M02 Q1017 R26R/120050 TEMPO 0300 FZFG VV002 RMK QFE742/0989

Hora: 09:23 (04:23 UTC)

Pronòstic

L'informe es va fer fa 2 hores i 27 minuts, a les 01:56 UTC
Pronòstic vàlid del 23 a les 03 UTC al 24 a les 03 UTC
Vent 6 kt del Oest amb ràfegues de 16 kt
Visibilitat: 3100 m
Cel ennuvolat a una alçada de 1100 ft
neu, boirina
Evolucionant progressivament
l' 23 a les 06 UTC al 23 a les 08 UTC
Vent 6 kt del Oest/Nord-Oest amb ràfegues de 16 kt
Visibilitat: 6000 m
neu, pluja

TAF: USSS 230156Z 2303/2403 26003G08MPS 3100 -SN BR BKN011 BECMG 2306/2308 30003G08MPS 6000 -SNRA

Observacions i pronòstics meteorològics de més de 4000 aeroports (METAR i TAF).

Les estacions disponibles són els punts grocs i vermells al mapa.

Posi el ratolí al punt desitjat per veure el nom de l'estació.

Feu clic per veure les observacions i els pronòstics meteorològics.

Per canviar el mapa: feu clic els botons verds amb una creu de color negre per apropar; al botó verd amb un guió per allunyar la imatge; o en les fletxes verdes per a mapes adjacents.


METAR-TAF: